KSLO

Salem-Leckrone Airport

Salem, Illinois, USA
METAR KSLO 190635Z AUTO 20009KT 10SM CLR M03/M08 A3017 RMK AO2 T10301076
Observed Flight Rules
Jan-19 @ 06:35 UTC (32 minutes ago) Visual Flight Rules
Wind Visibility Clouds
200° at 9 knots 10 miles
  • Clear skies
Temperatures Readings
Current -3°C / 27°F
Dewpoint -8°C / 18°F
Humidity 69%
Altimeter 30.17" Hg
Pressure 1022 hPa
Elevation 175
METAR KSLO 190635Z AUTO 20009KT 10SM CLR M03/M08 A3017 RMK AO2 T10301076
Observed Flight Rules
Jan-19 @ 06:35 UTC
(32 minutes ago)
VFR
Wind Visibility
200° at 9 knots 10 miles
Clouds
  • Clear skies
Temperature Dewpoint
-3°C / 27°F -8°C / 18°F
Humidity Altimeter Pressure
69% 30.17" Hg 1022 hPa